createdAt,value
2022-08-25T00:00:59.172Z,5.10
2022-08-25T00:02:32.786Z,4.45
2022-08-25T00:04:12.818Z,4.63
2022-08-25T00:05:47.599Z,4.05
2022-08-25T00:07:23.433Z,4.43
2022-08-25T00:08:59.677Z,4.38
2022-08-25T00:10:35.288Z,3.85
2022-08-25T00:12:08.856Z,4.65
2022-08-25T00:13:43.933Z,5.10
2022-08-25T00:15:17.623Z,3.88
2022-08-25T00:16:52.528Z,4.18
2022-08-25T00:18:29.446Z,4.15
2022-08-25T00:20:03.355Z,4.50
2022-08-25T00:21:37.059Z,4.35
2022-08-25T00:23:11.537Z,4.00
2022-08-25T00:24:45.357Z,4.20
2022-08-25T00:26:18.740Z,4.75
2022-08-25T00:27:53.180Z,4.28
2022-08-25T00:29:28.196Z,3.83
2022-08-25T00:31:01.603Z,4.57
2022-08-25T00:32:35.778Z,4.22
2022-08-25T00:34:11.791Z,4.38
2022-08-25T00:35:46.196Z,3.30
2022-08-25T00:37:20.397Z,4.43
2022-08-25T00:38:56.205Z,4.03
2022-08-25T00:40:30.906Z,3.83
2022-08-25T00:42:11.789Z,4.40
2022-08-25T00:43:55.426Z,3.97
2022-08-25T00:45:28.721Z,4.53
2022-08-25T00:47:03.960Z,3.78
2022-08-25T00:48:39.498Z,4.78
2022-08-25T00:50:13.673Z,4.45
2022-08-25T00:51:52.031Z,4.30
2022-08-25T00:53:25.575Z,4.15
2022-08-25T00:55:08.333Z,4.07
2022-08-25T00:56:42.170Z,4.35
2022-08-25T00:58:18.944Z,4.25
2022-08-25T00:59:52.658Z,3.83
2022-08-25T01:01:27.388Z,4.35
2022-08-25T01:03:00.886Z,4.38
2022-08-25T01:04:35.389Z,4.05
2022-08-25T01:06:10.355Z,4.40
2022-08-25T01:07:45.954Z,4.47
2022-08-25T01:09:21.405Z,5.10
2022-08-25T01:10:58.378Z,4.32
2022-08-25T01:12:32.498Z,4.80
2022-08-25T01:14:07.499Z,4.30
2022-08-25T01:15:42.002Z,3.97
2022-08-25T01:17:16.182Z,4.35
2022-08-25T01:18:52.724Z,4.00
2022-08-25T01:20:30.042Z,4.78
2022-08-25T01:22:06.518Z,3.47
2022-08-25T01:23:39.767Z,5.03
2022-08-25T01:25:26.634Z,4.10
2022-08-25T01:27:01.588Z,4.03
2022-08-25T01:28:36.724Z,4.65
2022-08-25T01:30:09.804Z,4.78
2022-08-25T01:31:43.448Z,4.53
2022-08-25T01:33:17.684Z,5.05
2022-08-25T01:34:51.840Z,4.80
2022-08-25T01:36:25.778Z,5.38
2022-08-25T01:38:01.643Z,5.70
2022-08-25T01:39:37.801Z,5.20
2022-08-25T01:41:09.974Z,5.00
2022-08-25T01:42:55.187Z,5.85
2022-08-25T01:44:29.027Z,5.13
2022-08-25T01:46:02.906Z,5.07
2022-08-25T01:47:38.439Z,5.22
2022-08-25T01:49:11.997Z,4.80
2022-08-25T01:50:45.475Z,4.40
2022-08-25T01:52:25.217Z,5.38
2022-08-25T01:54:00.221Z,5.93
2022-08-25T01:55:51.741Z,5.32
2022-08-25T01:57:25.910Z,5.28
2022-08-25T01:58:59.643Z,5.88
2022-08-25T02:00:33.463Z,5.38
2022-08-25T02:02:08.108Z,5.30
2022-08-25T02:03:45.336Z,5.10
2022-08-25T02:05:23.598Z,6.00
2022-08-25T02:06:57.743Z,4.72
2022-08-25T02:08:31.110Z,5.30
2022-08-25T02:10:09.587Z,4.97
2022-08-25T02:11:45.384Z,4.95
2022-08-25T02:13:19.670Z,5.03
2022-08-25T02:14:53.619Z,4.97
2022-08-25T02:16:30.008Z,5.15
2022-08-25T02:18:03.414Z,5.05
2022-08-25T02:19:38.181Z,5.45
2022-08-25T02:21:11.892Z,4.72
2022-08-25T02:22:48.976Z,5.50
2022-08-25T02:24:30.714Z,4.97
2022-08-25T02:26:05.330Z,5.25
2022-08-25T02:27:39.008Z,5.47
2022-08-25T02:29:13.124Z,4.85
2022-08-25T02:30:48.368Z,5.20
2022-08-25T02:32:20.931Z,5.10
2022-08-25T02:33:55.437Z,4.95
2022-08-25T02:35:30.467Z,4.85
2022-08-25T02:37:04.118Z,4.90
2022-08-25T02:38:36.938Z,5.45
2022-08-25T02:40:11.643Z,4.82
2022-08-25T02:41:46.917Z,5.43
2022-08-25T02:43:20.481Z,5.35
2022-08-25T02:44:54.286Z,5.68
2022-08-25T02:46:27.692Z,4.97
2022-08-25T02:48:00.501Z,5.72
2022-08-25T02:49:34.210Z,5.80
2022-08-25T02:51:09.482Z,5.03
2022-08-25T02:52:42.877Z,4.82
2022-08-25T02:54:17.346Z,5.70
2022-08-25T02:55:49.818Z,5.13
2022-08-25T02:57:24.709Z,5.25
2022-08-25T02:58:58.325Z,5.25
2022-08-25T03:00:31.975Z,5.05
2022-08-25T03:02:05.676Z,5.00
2022-08-25T03:03:43.633Z,15.73
2022-08-25T03:05:17.916Z,25.80
2022-08-25T03:06:52.359Z,16.58
2022-08-25T03:08:27.638Z,6.63
2022-08-25T03:10:01.167Z,23.08
2022-08-25T03:11:33.796Z,8.07
2022-08-25T03:13:09.119Z,5.88
2022-08-25T03:14:44.764Z,6.43
2022-08-25T03:16:20.372Z,9.77
2022-08-25T03:17:54.113Z,7.07
2022-08-25T03:19:28.438Z,6.22
2022-08-25T03:21:03.694Z,5.10
2022-08-25T03:22:37.843Z,5.20
2022-08-25T03:24:11.437Z,5.30
2022-08-25T03:26:03.014Z,5.15
2022-08-25T03:27:35.486Z,5.57
2022-08-25T03:29:10.983Z,5.57
2022-08-25T03:30:44.823Z,5.70
2022-08-25T03:32:19.271Z,6.28
2022-08-25T03:33:54.356Z,5.30
2022-08-25T03:35:27.545Z,15.90
2022-08-25T03:37:05.941Z,6.60
2022-08-25T03:38:40.295Z,5.78
2022-08-25T03:40:17.845Z,5.75
2022-08-25T03:41:54.736Z,5.15
2022-08-25T03:43:31.836Z,5.90
2022-08-25T03:45:08.157Z,6.45
2022-08-25T03:46:45.658Z,5.68
2022-08-25T03:48:19.659Z,5.13
2022-08-25T03:49:53.415Z,6.00
2022-08-25T03:51:29.553Z,5.28
2022-08-25T03:53:03.714Z,5.25
2022-08-25T03:54:37.521Z,5.82
2022-08-25T03:56:11.172Z,5.40
2022-08-25T03:57:45.586Z,5.75
2022-08-25T03:59:19.898Z,5.95
2022-08-25T04:00:57.373Z,5.00
2022-08-25T04:02:34.155Z,6.03
2022-08-25T04:04:10.015Z,5.35
2022-08-25T04:05:43.178Z,5.40
2022-08-25T04:07:16.802Z,5.75
2022-08-25T04:08:53.228Z,6.05
2022-08-25T04:10:27.417Z,5.78
2022-08-25T04:11:59.767Z,5.10
2022-08-25T04:13:33.264Z,5.18
2022-08-25T04:15:08.840Z,5.40
2022-08-25T04:16:45.931Z,5.55
2022-08-25T04:18:19.907Z,4.38
2022-08-25T04:19:53.501Z,5.95
2022-08-25T04:21:28.003Z,4.60
2022-08-25T04:23:03.010Z,4.78
2022-08-25T04:24:35.894Z,4.90
2022-08-25T04:26:14.196Z,4.72
2022-08-25T04:27:47.786Z,5.32
2022-08-25T04:29:25.217Z,5.30
2022-08-25T04:30:59.353Z,5.32
2022-08-25T04:32:33.932Z,4.80
2022-08-25T04:34:14.328Z,5.28
2022-08-25T04:36:02.276Z,4.95
2022-08-25T04:37:36.051Z,5.13
2022-08-25T04:39:09.740Z,5.10
2022-08-25T04:40:44.453Z,5.55
2022-08-25T04:42:18.351Z,4.78
2022-08-25T04:43:52.518Z,5.00
2022-08-25T04:45:26.739Z,4.93
2022-08-25T04:47:00.990Z,5.03
2022-08-25T04:48:36.581Z,5.05
2022-08-25T04:50:11.955Z,5.25
2022-08-25T04:51:46.646Z,4.68
2022-08-25T04:53:21.723Z,5.10
2022-08-25T04:54:56.712Z,5.05
2022-08-25T04:56:30.529Z,4.32
2022-08-25T04:58:03.884Z,5.10
2022-08-25T04:59:37.856Z,4.70
2022-08-25T05:01:16.034Z,5.43
2022-08-25T05:02:49.647Z,4.72
2022-08-25T05:04:28.016Z,4.50
2022-08-25T05:06:03.463Z,4.90
2022-08-25T05:07:38.968Z,4.40
2022-08-25T05:09:12.589Z,5.35
2022-08-25T05:10:46.187Z,4.93
2022-08-25T05:12:20.503Z,4.32
2022-08-25T05:13:57.462Z,5.32
2022-08-25T05:15:48.022Z,4.45
2022-08-25T05:17:24.195Z,4.82
2022-08-25T05:18:58.617Z,4.30
2022-08-25T05:20:33.862Z,4.38
2022-08-25T05:22:08.148Z,4.97
2022-08-25T05:23:41.247Z,4.35
2022-08-25T05:25:16.444Z,5.25
2022-08-25T05:26:50.987Z,5.07
2022-08-25T05:28:24.285Z,4.70
2022-08-25T05:29:58.315Z,5.28
2022-08-25T05:31:34.885Z,5.03
2022-08-25T05:33:11.915Z,4.10
2022-08-25T05:34:45.745Z,4.15
2022-08-25T05:36:21.924Z,4.40
2022-08-25T05:37:57.823Z,4.70
2022-08-25T05:39:32.914Z,4.75
2022-08-25T05:41:10.122Z,3.90
2022-08-25T05:42:43.526Z,3.72
2022-08-25T05:44:20.883Z,4.32
2022-08-25T05:45:55.311Z,3.80
2022-08-25T05:47:28.625Z,3.63
2022-08-25T05:49:02.154Z,3.90
2022-08-25T05:50:36.111Z,3.90
2022-08-25T05:52:11.858Z,3.88
2022-08-25T05:53:48.578Z,3.58
2022-08-25T05:55:22.410Z,4.28
2022-08-25T05:56:56.904Z,3.80
2022-08-25T05:58:33.653Z,3.33
2022-08-25T06:00:08.504Z,3.20
2022-08-25T06:02:07.495Z,3.53
2022-08-25T06:03:42.316Z,3.88
2022-08-25T06:05:18.608Z,3.50
2022-08-25T06:06:54.012Z,3.78
2022-08-25T06:08:32.442Z,3.67
2022-08-25T06:10:07.776Z,2.65
2022-08-25T06:11:43.050Z,3.33
2022-08-25T06:13:16.378Z,3.40
2022-08-25T06:14:53.753Z,3.47
2022-08-25T06:16:29.594Z,4.00
2022-08-25T06:18:03.532Z,3.55
2022-08-25T06:19:38.193Z,3.58
2022-08-25T06:21:17.284Z,3.45
2022-08-25T06:22:53.078Z,3.47
2022-08-25T06:24:29.270Z,3.97
2022-08-25T06:26:03.194Z,3.40
2022-08-25T06:27:38.466Z,3.90
2022-08-25T06:29:14.218Z,3.97
2022-08-25T06:30:48.033Z,4.00
2022-08-25T06:32:21.315Z,4.03
2022-08-25T06:33:55.077Z,4.05
2022-08-25T06:35:29.303Z,3.28
2022-08-25T06:37:02.824Z,4.32
2022-08-25T06:38:37.373Z,3.55
2022-08-25T06:40:13.889Z,3.85
2022-08-25T06:41:47.542Z,3.97
2022-08-25T06:43:20.735Z,3.42
2022-08-25T06:44:54.048Z,3.55
2022-08-25T06:46:35.860Z,3.55
2022-08-25T06:48:10.786Z,4.75
2022-08-25T06:49:44.122Z,3.80
2022-08-25T06:51:20.114Z,3.67
2022-08-25T06:52:53.634Z,3.63
2022-08-25T06:54:27.136Z,3.85
2022-08-25T06:56:06.398Z,3.25
2022-08-25T06:57:40.196Z,3.63
2022-08-25T06:59:13.849Z,3.72
2022-08-25T07:00:47.270Z,4.20
2022-08-25T07:02:21.967Z,4.10
2022-08-25T07:03:57.728Z,3.42
2022-08-25T07:05:43.464Z,3.78
2022-08-25T07:07:17.623Z,3.40
2022-08-25T07:08:51.211Z,3.33
2022-08-25T07:10:24.742Z,3.63
2022-08-25T07:12:02.822Z,3.28
2022-08-25T07:13:36.597Z,3.17
2022-08-25T07:15:19.766Z,3.30
2022-08-25T07:16:53.535Z,2.95
2022-08-25T07:18:27.287Z,3.72
2022-08-25T07:20:01.019Z,2.33
2022-08-25T07:21:37.099Z,3.25
2022-08-25T07:23:10.649Z,3.47
2022-08-25T07:24:44.782Z,2.88
2022-08-25T07:26:36.707Z,4.35
2022-08-25T07:28:12.264Z,3.15
2022-08-25T07:29:46.207Z,3.63
2022-08-25T07:31:21.251Z,3.03
2022-08-25T07:33:03.493Z,3.30
2022-08-25T07:34:57.605Z,3.65
2022-08-25T07:36:32.444Z,3.20
2022-08-25T07:38:09.126Z,3.00
2022-08-25T07:39:46.074Z,2.85
2022-08-25T07:41:19.634Z,2.92
2022-08-25T07:42:54.710Z,3.83
2022-08-25T07:44:29.710Z,3.03
2022-08-25T07:46:07.654Z,3.08
2022-08-25T07:47:41.559Z,3.47
2022-08-25T07:49:16.767Z,3.10
2022-08-25T07:50:50.690Z,2.92
2022-08-25T07:52:24.925Z,3.67
2022-08-25T07:53:59.416Z,3.13
2022-08-25T07:55:36.526Z,3.75
2022-08-25T07:57:10.402Z,3.15
2022-08-25T07:58:45.186Z,2.80
2022-08-25T08:00:20.584Z,3.78
2022-08-25T08:01:54.262Z,2.55
2022-08-25T08:03:45.229Z,2.60
2022-08-25T08:05:21.600Z,3.45
2022-08-25T08:06:57.881Z,2.75
2022-08-25T08:08:31.117Z,3.15
2022-08-25T08:10:37.111Z,3.25
2022-08-25T08:12:02.179Z,2.83
2022-08-25T08:13:41.144Z,2.63
2022-08-25T08:15:15.734Z,3.17
2022-08-25T08:16:50.770Z,2.63
2022-08-25T08:18:24.788Z,2.70
2022-08-25T08:19:58.253Z,2.47
2022-08-25T08:21:34.494Z,2.80
2022-08-25T08:23:08.003Z,2.78
2022-08-25T08:24:44.624Z,3.13
2022-08-25T08:26:48.105Z,2.30
2022-08-25T08:28:23.018Z,2.60
2022-08-25T08:29:57.228Z,2.38
2022-08-25T08:31:30.923Z,2.38
2022-08-25T08:33:11.700Z,2.50
2022-08-25T08:34:46.307Z,2.40
2022-08-25T08:36:22.086Z,2.70
2022-08-25T08:37:59.812Z,2.75
2022-08-25T08:39:33.009Z,1.90
2022-08-25T08:41:48.912Z,2.65
2022-08-25T08:43:33.329Z,2.10
2022-08-25T08:45:24.512Z,2.15
2022-08-25T08:47:07.134Z,2.00
2022-08-25T08:48:54.454Z,2.58
2022-08-25T08:50:36.525Z,2.58
2022-08-25T08:52:14.064Z,2.25
2022-08-25T08:53:54.275Z,2.45
2022-08-25T08:55:34.434Z,2.55
2022-08-25T08:57:13.802Z,2.28
2022-08-25T08:58:51.183Z,2.30
2022-08-25T09:00:24.606Z,2.20
2022-08-25T09:02:00.786Z,1.80
2022-08-25T09:03:39.734Z,1.75
2022-08-25T09:05:20.430Z,2.10
2022-08-25T09:06:56.529Z,2.00
2022-08-25T09:08:30.251Z,2.38
2022-08-25T09:10:05.048Z,2.00
2022-08-25T09:11:53.590Z,2.72
2022-08-25T09:13:39.558Z,2.05
2022-08-25T09:15:21.461Z,1.85
2022-08-25T09:17:02.953Z,2.38
2022-08-25T09:18:51.205Z,1.85
2022-08-25T09:20:51.415Z,2.53
2022-08-25T09:22:40.776Z,2.17
2022-08-25T09:24:27.899Z,2.63
2022-08-25T09:26:16.293Z,2.50
2022-08-25T09:28:04.207Z,1.83
2022-08-25T09:29:53.151Z,1.92
2022-08-25T09:31:30.029Z,1.85
2022-08-25T09:33:05.139Z,1.70
2022-08-25T09:34:39.227Z,1.73
2022-08-25T09:36:13.098Z,1.85
2022-08-25T09:37:58.364Z,1.80
2022-08-25T09:39:32.321Z,1.83
2022-08-25T09:41:06.054Z,1.50
2022-08-25T09:42:51.229Z,2.20
2022-08-25T09:44:36.544Z,2.47
2022-08-25T09:46:16.612Z,1.90
2022-08-25T09:47:54.596Z,1.60
2022-08-25T09:49:35.970Z,1.63
2022-08-25T09:51:21.120Z,1.35
2022-08-25T09:52:54.484Z,1.80
2022-08-25T09:54:34.144Z,1.35
2022-08-25T09:56:23.278Z,1.48
2022-08-25T09:57:58.793Z,1.40
2022-08-25T09:59:35.661Z,1.60
2022-08-25T10:01:17.084Z,1.52
2022-08-25T10:03:06.677Z,1.42
2022-08-25T10:04:41.609Z,1.75
2022-08-25T10:06:16.896Z,2.35
2022-08-25T10:07:54.837Z,2.63
2022-08-25T10:09:34.664Z,1.95
2022-08-25T10:11:13.186Z,1.52
2022-08-25T10:12:51.381Z,1.50
2022-08-25T10:14:35.066Z,1.80
2022-08-25T10:16:20.352Z,1.45
2022-08-25T10:17:54.888Z,2.50
2022-08-25T10:19:31.119Z,1.80
2022-08-25T10:21:11.392Z,1.73
2022-08-25T10:22:50.614Z,1.92
2022-08-25T10:24:23.888Z,1.45
2022-08-25T10:26:04.288Z,1.70
2022-08-25T10:27:49.490Z,1.38
2022-08-25T10:29:35.149Z,1.60
2022-08-25T10:31:17.480Z,1.50
2022-08-25T10:33:14.525Z,1.48
2022-08-25T10:34:56.537Z,1.58
2022-08-25T10:36:38.107Z,1.30
2022-08-25T10:38:27.257Z,1.30
2022-08-25T10:40:14.314Z,1.50
2022-08-25T10:41:58.047Z,1.88
2022-08-25T10:43:37.568Z,1.70
2022-08-25T10:45:37.585Z,1.77
2022-08-25T10:47:28.902Z,1.65
2022-08-25T10:49:10.468Z,1.83
2022-08-25T10:50:55.039Z,1.83
2022-08-25T10:52:39.649Z,2.45
2022-08-25T10:54:28.026Z,1.83
2022-08-25T10:56:07.122Z,2.00
2022-08-25T10:57:48.405Z,1.65
2022-08-25T10:59:47.053Z,2.25
2022-08-25T11:01:43.572Z,2.42
2022-08-25T11:03:35.387Z,1.70
2022-08-25T11:05:14.748Z,1.95
2022-08-25T11:06:54.652Z,1.80
2022-08-25T11:08:35.539Z,1.95
2022-08-25T11:10:17.365Z,1.50
2022-08-25T11:11:56.797Z,1.85
2022-08-25T11:13:40.504Z,1.65
2022-08-25T11:15:21.077Z,1.73
2022-08-25T11:17:03.339Z,1.88
2022-08-25T11:18:45.685Z,1.70
2022-08-25T11:20:26.736Z,1.50
2022-08-25T11:22:09.999Z,1.90
2022-08-25T11:23:51.258Z,1.40
2022-08-25T11:25:30.779Z,1.70
2022-08-25T11:27:07.898Z,1.70
2022-08-25T11:28:52.784Z,2.00
2022-08-25T11:30:26.160Z,1.90
2022-08-25T11:32:05.875Z,1.73
2022-08-25T11:33:40.074Z,2.30
2022-08-25T11:35:16.035Z,1.80
2022-08-25T11:36:53.203Z,1.98
2022-08-25T11:38:44.831Z,1.80
2022-08-25T11:40:39.472Z,1.30
2022-08-25T11:42:26.558Z,1.35
2022-08-25T11:44:21.067Z,1.50
2022-08-25T11:46:34.865Z,2.13
2022-08-25T11:48:20.328Z,1.65
2022-08-25T11:49:59.830Z,1.90
2022-08-25T11:51:45.209Z,1.70
2022-08-25T11:53:28.150Z,1.48
2022-08-25T11:55:08.084Z,1.77
2022-08-25T11:56:54.083Z,2.10
2022-08-25T11:58:47.002Z,1.85
2022-08-25T12:00:42.302Z,1.73
2022-08-25T12:02:32.868Z,1.67
2022-08-25T12:04:14.908Z,1.83
2022-08-25T12:06:14.051Z,2.33
2022-08-25T12:08:24.563Z,1.20
2022-08-25T12:10:15.295Z,3.63
2022-08-25T12:11:58.737Z,1.60
2022-08-25T12:13:44.941Z,2.25
2022-08-25T12:15:22.547Z,1.27
2022-08-25T12:17:12.076Z,1.55
2022-08-25T12:18:50.275Z,1.52
2022-08-25T12:21:02.659Z,1.60
2022-08-25T12:23:00.733Z,1.45
2022-08-25T12:24:54.065Z,1.77
2022-08-25T12:26:35.205Z,1.70
2022-08-25T12:28:26.887Z,1.55
2022-08-25T12:30:06.941Z,1.50
2022-08-25T12:32:09.289Z,1.50
2022-08-25T12:33:56.600Z,1.30
2022-08-25T12:35:32.607Z,1.85
2022-08-25T12:37:14.170Z,1.70
2022-08-25T12:38:52.995Z,1.40
2022-08-25T12:40:33.257Z,1.52
2022-08-25T12:42:26.116Z,1.50
2022-08-25T12:44:25.551Z,1.95
2022-08-25T12:46:43.658Z,1.60
2022-08-25T12:49:06.206Z,1.45
2022-08-25T12:50:43.245Z,1.88
2022-08-25T12:52:20.064Z,1.33
2022-08-25T12:53:58.953Z,2.17
2022-08-25T12:55:34.494Z,1.60
2022-08-25T12:57:29.501Z,1.38
2022-08-25T12:59:13.994Z,1.52
2022-08-25T13:01:07.555Z,1.70
2022-08-25T13:03:13.274Z,1.65
2022-08-25T13:05:13.275Z,1.70
2022-08-25T13:07:13.231Z,1.70
2022-08-25T13:09:00.638Z,1.35
2022-08-25T13:10:48.519Z,1.42
2022-08-25T13:12:26.922Z,1.50
2022-08-25T13:14:12.588Z,1.35
2022-08-25T13:15:48.926Z,1.65
2022-08-25T13:17:33.808Z,1.48
2022-08-25T13:19:08.250Z,1.60
2022-08-25T13:20:44.052Z,2.17
2022-08-25T13:22:28.285Z,1.45
2022-08-25T13:24:06.952Z,1.80
2022-08-25T13:25:54.849Z,1.80
2022-08-25T13:27:38.811Z,1.23
2022-08-25T13:29:18.984Z,1.45
2022-08-25T13:31:01.409Z,1.60
2022-08-25T13:32:39.588Z,1.48
2022-08-25T13:34:21.737Z,1.48
2022-08-25T13:36:11.436Z,1.60
2022-08-25T13:37:45.232Z,1.67
2022-08-25T13:39:45.467Z,1.85
2022-08-25T13:41:29.238Z,1.65
2022-08-25T13:43:07.937Z,1.50
2022-08-25T13:44:52.498Z,1.70
2022-08-25T13:46:27.325Z,1.45
2022-08-25T13:48:01.174Z,1.30
2022-08-25T13:49:34.736Z,1.52
2022-08-25T13:51:18.519Z,1.80
2022-08-25T13:52:55.556Z,1.38
2022-08-25T13:54:31.034Z,1.60
2022-08-25T13:56:05.660Z,1.35
2022-08-25T13:57:45.578Z,1.45
2022-08-25T13:59:26.005Z,1.50
2022-08-25T14:01:23.739Z,1.65
2022-08-25T14:03:12.650Z,1.42
2022-08-25T14:04:51.257Z,1.42
2022-08-25T14:06:27.341Z,1.70
2022-08-25T14:08:16.042Z,1.42
2022-08-25T14:09:57.571Z,1.60
2022-08-25T14:11:32.974Z,1.75
2022-08-25T14:13:13.203Z,1.77
2022-08-25T14:15:00.319Z,1.58
2022-08-25T14:16:40.826Z,1.70
2022-08-25T14:18:26.745Z,1.45
2022-08-25T14:20:01.000Z,1.55
2022-08-25T14:21:35.838Z,1.50
2022-08-25T14:23:19.479Z,1.30
2022-08-25T14:24:54.598Z,1.77
2022-08-25T14:26:28.559Z,2.15
2022-08-25T14:28:06.909Z,1.42
2022-08-25T14:29:41.424Z,1.48
2022-08-25T14:31:18.379Z,1.45
2022-08-25T14:32:55.029Z,1.58
2022-08-25T14:34:34.295Z,1.90
2022-08-25T14:36:08.628Z,1.63
2022-08-25T14:37:41.931Z,1.70
2022-08-25T14:39:16.131Z,1.73
2022-08-25T14:40:50.425Z,1.45
2022-08-25T14:42:26.618Z,1.80
2022-08-25T14:43:59.945Z,2.08
2022-08-25T14:45:33.434Z,1.38
2022-08-25T14:47:08.824Z,1.52
2022-08-25T14:48:47.718Z,1.48
2022-08-25T14:50:23.681Z,2.10
2022-08-25T14:52:00.885Z,1.27
2022-08-25T14:53:40.164Z,1.98
2022-08-25T14:55:17.440Z,1.60
2022-08-25T14:57:08.227Z,2.28
2022-08-25T14:58:51.570Z,1.52
2022-08-25T15:00:28.020Z,1.75
2022-08-25T15:02:02.319Z,1.38
2022-08-25T15:03:40.083Z,2.00
2022-08-25T15:05:19.193Z,1.60
2022-08-25T15:06:57.969Z,1.30
2022-08-25T15:08:49.414Z,1.73
2022-08-25T15:10:21.909Z,1.50
2022-08-25T15:11:57.451Z,1.40
2022-08-25T15:13:31.331Z,1.33
2022-08-25T15:15:07.319Z,1.60
2022-08-25T15:16:45.498Z,1.27
2022-08-25T15:18:19.633Z,1.73
2022-08-25T15:19:53.636Z,12.88
2022-08-25T15:21:29.218Z,6.70
2022-08-25T15:23:05.877Z,2.53
2022-08-25T15:24:40.268Z,1.67
2022-08-25T15:26:15.330Z,1.55
2022-08-25T15:27:49.196Z,1.48
2022-08-25T15:29:26.424Z,1.67
2022-08-25T15:31:00.056Z,1.85
2022-08-25T15:32:34.769Z,1.38
2022-08-25T15:34:11.841Z,1.80
2022-08-25T15:35:45.626Z,1.60
2022-08-25T15:37:20.481Z,2.15
2022-08-25T15:38:54.772Z,1.73
2022-08-25T15:40:29.279Z,1.80
2022-08-25T15:42:02.693Z,1.73
2022-08-25T15:43:44.310Z,1.50
2022-08-25T15:45:18.527Z,1.58
2022-08-25T15:46:52.885Z,1.77
2022-08-25T15:48:31.413Z,1.70
2022-08-25T15:50:08.165Z,1.50
2022-08-25T15:51:42.345Z,1.30
2022-08-25T15:53:21.592Z,1.90
2022-08-25T15:54:55.842Z,1.70
2022-08-25T15:56:31.596Z,1.67
2022-08-25T15:58:05.037Z,1.98
2022-08-25T15:59:40.974Z,1.60
2022-08-25T16:01:15.448Z,2.30
2022-08-25T16:02:54.877Z,2.33
2022-08-25T16:04:30.083Z,1.70
2022-08-25T16:06:09.344Z,3.05
2022-08-25T16:07:51.748Z,2.10
2022-08-25T16:09:28.483Z,1.90
2022-08-25T16:11:07.517Z,2.13
2022-08-25T16:12:43.276Z,1.75
2022-08-25T16:14:18.333Z,1.83
2022-08-25T16:15:54.371Z,1.75
2022-08-25T16:17:28.485Z,2.28
2022-08-25T16:19:02.903Z,2.20
2022-08-25T16:20:37.355Z,2.47
2022-08-25T16:22:12.843Z,1.80
2022-08-25T16:23:46.252Z,2.10
2022-08-25T16:25:23.792Z,2.80
2022-08-25T16:27:10.877Z,2.08
2022-08-25T16:28:45.090Z,1.90
2022-08-25T16:30:19.688Z,2.03
2022-08-25T16:31:55.111Z,2.03
2022-08-25T16:33:28.738Z,2.20
2022-08-25T16:35:11.093Z,2.10
2022-08-25T16:36:45.045Z,2.10
2022-08-25T16:38:18.876Z,2.17
2022-08-25T16:39:53.860Z,1.60
2022-08-25T16:41:35.692Z,1.67
2022-08-25T16:43:12.380Z,1.88
2022-08-25T16:44:45.968Z,15.10
2022-08-25T16:46:21.566Z,4.93
2022-08-25T16:47:57.508Z,2.60
2022-08-25T16:49:32.428Z,1.90
2022-08-25T16:51:08.474Z,1.80
2022-08-25T16:52:59.707Z,2.97
2022-08-25T16:54:50.575Z,1.92
2022-08-25T16:56:25.222Z,1.95
2022-08-25T16:58:02.914Z,1.80
2022-08-25T16:59:43.756Z,1.52
2022-08-25T17:01:25.535Z,1.70
2022-08-25T17:03:02.595Z,1.45
2022-08-25T17:04:37.409Z,1.70
2022-08-25T17:06:15.162Z,1.75
2022-08-25T17:08:14.236Z,1.63
2022-08-25T17:09:48.288Z,1.65
2022-08-25T17:11:24.525Z,1.70
2022-08-25T17:12:58.413Z,1.67
2022-08-25T17:14:39.238Z,1.60
2022-08-25T17:16:14.564Z,1.77
2022-08-25T17:17:56.418Z,1.77
2022-08-25T17:19:30.752Z,1.73
2022-08-25T17:21:07.740Z,2.53
2022-08-25T17:22:46.691Z,2.67
2022-08-25T17:24:21.048Z,21.45
2022-08-25T17:25:56.894Z,4.20
2022-08-25T17:27:35.421Z,2.67
2022-08-25T17:29:10.746Z,3.67
2022-08-25T17:30:46.469Z,3.10
2022-08-25T17:32:20.402Z,2.33
2022-08-25T17:33:55.152Z,2.05
2022-08-25T17:35:28.588Z,2.35
2022-08-25T17:37:02.489Z,2.80
2022-08-25T17:38:37.149Z,2.50
2022-08-25T17:40:11.759Z,2.47
2022-08-25T17:41:45.964Z,2.13
2022-08-25T17:43:19.256Z,2.30
2022-08-25T17:44:52.927Z,2.35
2022-08-25T17:46:28.867Z,1.90
2022-08-25T17:48:03.664Z,2.17
2022-08-25T17:49:37.941Z,1.98
2022-08-25T17:51:11.485Z,2.40
2022-08-25T17:52:44.768Z,2.72
2022-08-25T17:54:19.138Z,2.58
2022-08-25T17:56:00.404Z,2.40
2022-08-25T17:57:33.675Z,2.75
2022-08-25T17:59:07.373Z,2.63
2022-08-25T18:00:43.995Z,2.00
2022-08-25T18:02:22.297Z,2.28
2022-08-25T18:03:58.262Z,2.30
2022-08-25T18:05:33.443Z,1.85
2022-08-25T18:09:06.827Z,1.92
2022-08-25T18:10:45.535Z,1.85
2022-08-25T18:12:27.660Z,1.88
2022-08-25T18:14:02.454Z,1.80
2022-08-25T18:15:46.906Z,2.13
2022-08-25T18:17:26.448Z,1.85
2022-08-25T18:19:00.771Z,1.92
2022-08-25T18:20:36.566Z,2.38
2022-08-25T18:22:14.078Z,2.10
2022-08-25T18:23:52.165Z,1.92
2022-08-25T18:25:30.818Z,2.05
2022-08-25T18:27:06.069Z,1.92
2022-08-25T18:28:45.055Z,2.42
2022-08-25T18:30:19.730Z,1.83
2022-08-25T18:32:00.404Z,10.25
2022-08-25T18:33:42.159Z,3.60
2022-08-25T18:35:17.337Z,2.40
2022-08-25T18:36:54.996Z,2.20
2022-08-25T18:38:46.387Z,2.45
2022-08-25T18:40:25.747Z,2.40
2022-08-25T18:42:03.900Z,2.28
2022-08-25T18:43:40.008Z,2.15
2022-08-25T18:45:13.946Z,2.22
2022-08-25T18:46:51.048Z,2.40
2022-08-25T18:48:27.945Z,2.90
2022-08-25T18:50:04.600Z,2.92
2022-08-25T18:51:40.715Z,3.55
2022-08-25T18:53:16.720Z,4.38
2022-08-25T18:54:52.137Z,3.90
2022-08-25T18:56:26.413Z,3.53
2022-08-25T18:58:00.535Z,2.45
2022-08-25T18:59:34.215Z,2.30
2022-08-25T19:01:07.586Z,2.55
2022-08-25T19:02:47.392Z,2.28
2022-08-25T19:04:20.797Z,2.00
2022-08-25T19:06:04.266Z,2.47
2022-08-25T19:07:37.820Z,2.13
2022-08-25T19:09:13.649Z,1.80
2022-08-25T19:10:53.350Z,2.13
2022-08-25T19:12:27.884Z,2.22
2022-08-25T19:14:02.406Z,2.17
2022-08-25T19:15:38.405Z,2.08
2022-08-25T19:17:14.808Z,1.90
2022-08-25T19:18:51.992Z,2.42
2022-08-25T19:20:28.573Z,2.05
2022-08-25T19:22:03.998Z,1.83
2022-08-25T19:23:39.004Z,2.63
2022-08-25T19:25:14.900Z,2.30
2022-08-25T19:26:54.563Z,2.33
2022-08-25T19:28:30.127Z,2.40
2022-08-25T19:30:04.582Z,2.10
2022-08-25T19:31:41.848Z,2.10
2022-08-25T19:33:15.724Z,2.47
2022-08-25T19:35:12.757Z,2.45
2022-08-25T19:36:49.739Z,2.17
2022-08-25T19:38:34.206Z,1.80
2022-08-25T19:40:12.111Z,2.10
2022-08-25T19:41:47.165Z,2.17
2022-08-25T19:43:23.728Z,2.05
2022-08-25T19:44:59.680Z,2.33
2022-08-25T19:46:36.184Z,2.22
2022-08-25T19:48:11.716Z,2.60
2022-08-25T19:49:49.075Z,1.80
2022-08-25T19:51:25.782Z,1.83
2022-08-25T19:53:00.654Z,2.40
2022-08-25T19:54:38.518Z,2.30
2022-08-25T19:56:19.211Z,2.47
2022-08-25T19:57:54.486Z,2.70
2022-08-25T19:59:40.672Z,1.95
2022-08-25T20:01:20.547Z,1.60
2022-08-25T20:02:54.842Z,2.40
2022-08-25T20:04:30.503Z,2.50
2022-08-25T20:06:04.998Z,2.00
2022-08-25T20:07:41.311Z,1.77
2022-08-25T20:09:21.152Z,2.13
2022-08-25T20:11:11.016Z,1.40
2022-08-25T20:12:45.686Z,1.98
2022-08-25T20:14:19.142Z,2.10
2022-08-25T20:15:53.443Z,2.08
2022-08-25T20:17:32.782Z,2.60
2022-08-25T20:19:11.495Z,2.00
2022-08-25T20:20:45.408Z,2.03
2022-08-25T20:22:19.958Z,2.05
2022-08-25T20:24:14.170Z,2.50
2022-08-25T20:25:50.200Z,2.10
2022-08-25T20:27:29.367Z,2.10
2022-08-25T20:29:05.135Z,2.20
2022-08-25T20:30:38.671Z,2.28
2022-08-25T20:32:12.269Z,1.80
2022-08-25T20:33:46.489Z,1.50
2022-08-25T20:35:26.812Z,1.40
2022-08-25T20:37:01.190Z,2.40
2022-08-25T20:38:34.854Z,1.92
2022-08-25T20:40:10.614Z,2.03
2022-08-25T20:41:44.599Z,2.50
2022-08-25T20:43:23.432Z,1.90
2022-08-25T20:44:56.913Z,2.00
2022-08-25T20:46:33.985Z,2.13
2022-08-25T20:48:10.071Z,2.13
2022-08-25T20:49:45.501Z,1.90
2022-08-25T20:51:21.159Z,1.77
2022-08-25T20:52:59.040Z,1.45
2022-08-25T20:54:34.983Z,2.40
2022-08-25T20:56:11.827Z,2.80
2022-08-25T20:57:46.265Z,2.17
2022-08-25T20:59:22.106Z,2.13
2022-08-25T21:00:56.288Z,1.98
2022-08-25T21:02:30.695Z,2.20
2022-08-25T21:04:05.263Z,2.55
2022-08-25T21:05:41.032Z,1.90
2022-08-25T21:07:15.893Z,2.08
2022-08-25T21:08:49.166Z,2.20
2022-08-25T21:10:22.733Z,2.33
2022-08-25T21:11:58.263Z,2.30
2022-08-25T21:13:32.134Z,2.30
2022-08-25T21:15:10.315Z,2.17
2022-08-25T21:16:47.342Z,2.25
2022-08-25T21:18:20.835Z,2.60
2022-08-25T21:19:54.407Z,2.15
2022-08-25T21:21:28.610Z,1.75
2022-08-25T21:23:02.052Z,2.35
2022-08-25T21:24:38.050Z,2.00
2022-08-25T21:26:13.915Z,2.03
2022-08-25T21:27:48.003Z,2.30
2022-08-25T21:29:24.497Z,2.08
2022-08-25T21:31:00.900Z,1.83
2022-08-25T21:32:34.842Z,1.90
2022-08-25T21:34:07.416Z,1.88
2022-08-25T21:35:42.923Z,1.85
2022-08-25T21:37:17.680Z,1.92
2022-08-25T21:38:51.483Z,2.45
2022-08-25T21:40:25.606Z,2.35
2022-08-25T21:42:00.300Z,2.13
2022-08-25T21:43:34.198Z,2.65
2022-08-25T21:45:11.284Z,1.75
2022-08-25T21:46:54.275Z,2.80
2022-08-25T21:48:28.422Z,2.15